Pagrindinis puslapis
METAR-TAF:

METAR-TAF

Oro uostai :

Harriman-and-West Airport

North Adams, Masačusetsas, Jungtinės Amerikos Valstijos

platuma: 42-41-50N, ilguma: 073-10-13W, Aukštis: 199 m

Dabartinis oras

Ataskaita buvo paskelbta 38 minutes, ne 05:52 UTC
Vėjas 13 kt iš Vakarų su gūsio iki 22 kt
Temperatūra -4°C
Drėgmė 54%
Slėgis 1004 hPa
Matomumas: 16.1 km
Mažai debesys ne aukštis 3900 ft
Išsisklaidę debesys ne aukštis 4600 ft
Išsisklaidę debesys ne aukštis 6500 ft

METAR: KAQW 280552Z AUTO 27013G22KT 10SM FEW039 SCT046 SCT065 M04/M12 A2965 RMK AO2 PK WND 27031/0541 SNB02E19 SLP049 P0000 60000 T10441122 11028 21044 53007

Laikas: 01:30 (06:30 UTC)


TAF: trūkstamas

Orai ataskaitas ir orų prognozės (METAR, TAF).

turimą stotys yra geltonos ir raudonos taškus žemėlapyje.

Perkelti pele per norėdami pamatyti stoties vardą.

Tada spustelėkite, norėdami matyti oro stebėjimo ir prognozės.

Norėdami pakeisti žemėlapį: spustelėkite ant žalios mygtukų su juodo kryžiaus žemyn,; žalią mygtuką su brūkšneliu, jei norite nutolinti; arba žalių rodyklių gretimoms žemėlapius.


METAR-TAF: